sensor_id;sensor_type;location;lat;lon;timestamp;temperature;humidity
48212;DHT22;34000;48.772;9.162;2022-12-18T00:18:06;-1.40;55.70
48212;DHT22;34000;48.772;9.162;2022-12-18T00:20:35;-1.40;56.10
48212;DHT22;34000;48.772;9.162;2022-12-18T00:23:01;-1.30;56.20
48212;DHT22;34000;48.772;9.162;2022-12-18T00:25:27;-1.40;56.10
48212;DHT22;34000;48.772;9.162;2022-12-18T00:27:52;-1.40;56.00
48212;DHT22;34000;48.772;9.162;2022-12-18T00:30:18;-1.30;56.00
48212;DHT22;34000;48.772;9.162;2022-12-18T00:32:43;-1.30;55.90
48212;DHT22;34000;48.772;9.162;2022-12-18T00:35:08;-1.30;56.00
48212;DHT22;34000;48.772;9.162;2022-12-18T00:37:34;-1.20;56.10
48212;DHT22;34000;48.772;9.162;2022-12-18T00:40:00;-1.30;56.00
48212;DHT22;34000;48.772;9.162;2022-12-18T00:42:25;-1.20;56.20
48212;DHT22;34000;48.772;9.162;2022-12-18T00:45:09;-1.30;56.20
48212;DHT22;34000;48.772;9.162;2022-12-18T00:47:35;-1.30;56.20
48212;DHT22;34000;48.772;9.162;2022-12-18T00:50:00;-1.20;56.20
48212;DHT22;34000;48.772;9.162;2022-12-18T00:52:26;-1.40;56.10
48212;DHT22;34000;48.772;9.162;2022-12-18T00:54:51;-1.40;56.60
48212;DHT22;34000;48.772;9.162;2022-12-18T00:57:17;-1.40;56.10
48212;DHT22;34000;48.772;9.162;2022-12-18T00:59:42;-1.40;56.20
48212;DHT22;34000;48.772;9.162;2022-12-18T01:02:08;-1.40;56.20
48212;DHT22;34000;48.772;9.162;2022-12-18T01:04:33;-1.50;56.20
48212;DHT22;34000;48.772;9.162;2022-12-18T01:06:59;-1.60;56.30
48212;DHT22;34000;48.772;9.162;2022-12-18T01:09:24;-1.60;56.30
48212;DHT22;34000;48.772;9.162;2022-12-18T01:11:50;-1.60;56.40
48212;DHT22;34000;48.772;9.162;2022-12-18T01:14:15;-1.70;56.50
48212;DHT22;34000;48.772;9.162;2022-12-18T01:16:40;-1.90;56.50
48212;DHT22;34000;48.772;9.162;2022-12-18T01:19:06;-1.80;56.80
48212;DHT22;34000;48.772;9.162;2022-12-18T01:21:32;-1.90;56.80
48212;DHT22;34000;48.772;9.162;2022-12-18T01:23:57;-1.80;56.90
48212;DHT22;34000;48.772;9.162;2022-12-18T01:26:23;-1.80;56.90
48212;DHT22;34000;48.772;9.162;2022-12-18T01:28:49;-1.80;56.70
48212;DHT22;34000;48.772;9.162;2022-12-18T01:31:18;-1.80;56.70
48212;DHT22;34000;48.772;9.162;2022-12-18T01:33:45;-1.70;56.70
48212;DHT22;34000;48.772;9.162;2022-12-18T01:36:21;-1.70;56.70
48212;DHT22;34000;48.772;9.162;2022-12-18T01:38:47;-1.70;56.70
48212;DHT22;34000;48.772;9.162;2022-12-18T01:41:13;-1.60;56.80
48212;DHT22;34000;48.772;9.162;2022-12-18T01:43:42;-1.60;56.70
48212;DHT22;34000;48.772;9.162;2022-12-18T01:46:08;-1.60;56.60
48212;DHT22;34000;48.772;9.162;2022-12-18T01:48:34;-1.60;56.60
48212;DHT22;34000;48.772;9.162;2022-12-18T01:50:59;-1.60;56.50
48212;DHT22;34000;48.772;9.162;2022-12-18T01:53:25;-1.50;56.50
48212;DHT22;34000;48.772;9.162;2022-12-18T01:55:51;-1.50;56.50
48212;DHT22;34000;48.772;9.162;2022-12-18T01:58:18;-1.40;56.50
48212;DHT22;34000;48.772;9.162;2022-12-18T02:00:44;-1.40;56.50
48212;DHT22;34000;48.772;9.162;2022-12-18T02:03:10;-1.40;56.40
48212;DHT22;34000;48.772;9.162;2022-12-18T02:08:19;-1.30;56.40
48212;DHT22;34000;48.772;9.162;2022-12-18T02:13:12;-1.30;56.50
48212;DHT22;34000;48.772;9.162;2022-12-18T02:18:12;-1.30;56.50
48212;DHT22;34000;48.772;9.162;2022-12-18T02:20:47;-1.40;56.30
48212;DHT22;34000;48.772;9.162;2022-12-18T02:28:17;-1.30;56.40
48212;DHT22;34000;48.772;9.162;2022-12-18T02:30:45;-1.20;56.50
48212;DHT22;34000;48.772;9.162;2022-12-18T02:33:12;-1.20;56.40
48212;DHT22;34000;48.772;9.162;2022-12-18T02:35:38;-1.10;56.20
48212;DHT22;34000;48.772;9.162;2022-12-18T02:38:05;-1.20;56.10
48212;DHT22;34000;48.772;9.162;2022-12-18T02:40:31;-1.20;56.10
48212;DHT22;34000;48.772;9.162;2022-12-18T02:43:06;-1.30;56.00
48212;DHT22;34000;48.772;9.162;2022-12-18T02:45:32;-1.30;56.00
48212;DHT22;34000;48.772;9.162;2022-12-18T02:47:58;-1.40;56.20
48212;DHT22;34000;48.772;9.162;2022-12-18T02:50:30;-1.50;56.30
48212;DHT22;34000;48.772;9.162;2022-12-18T03:00:41;-1.80;56.60
48212;DHT22;34000;48.772;9.162;2022-12-18T03:03:13;-1.80;56.70
48212;DHT22;34000;48.772;9.162;2022-12-18T03:05:44;-2.00;56.60
48212;DHT22;34000;48.772;9.162;2022-12-18T03:08:14;-2.00;56.80
48212;DHT22;34000;48.772;9.162;2022-12-18T03:10:42;-2.10;56.70
48212;DHT22;34000;48.772;9.162;2022-12-18T03:13:14;-2.10;56.80
48212;DHT22;34000;48.772;9.162;2022-12-18T03:15:51;-2.20;56.80
48212;DHT22;34000;48.772;9.162;2022-12-18T03:18:18;-2.20;57.00
48212;DHT22;34000;48.772;9.162;2022-12-18T03:20:45;-2.30;57.10
48212;DHT22;34000;48.772;9.162;2022-12-18T03:23:14;-2.30;57.10
48212;DHT22;34000;48.772;9.162;2022-12-18T03:25:41;-2.30;57.20
48212;DHT22;34000;48.772;9.162;2022-12-18T03:28:08;-2.20;57.20
48212;DHT22;34000;48.772;9.162;2022-12-18T03:30:35;-2.10;57.10
48212;DHT22;34000;48.772;9.162;2022-12-18T03:33:05;-2.20;56.90
48212;DHT22;34000;48.772;9.162;2022-12-18T03:35:37;-2.20;56.90
48212;DHT22;34000;48.772;9.162;2022-12-18T03:38:04;-2.20;56.90
48212;DHT22;34000;48.772;9.162;2022-12-18T03:43:18;-2.30;56.80
48212;DHT22;34000;48.772;9.162;2022-12-18T03:45:51;-2.40;56.90
48212;DHT22;34000;48.772;9.162;2022-12-18T03:48:26;-2.50;57.00
48212;DHT22;34000;48.772;9.162;2022-12-18T03:51:00;-2.60;57.00
48212;DHT22;34000;48.772;9.162;2022-12-18T03:56:11;-2.50;57.00
48212;DHT22;34000;48.772;9.162;2022-12-18T03:58:38;-2.50;57.00
48212;DHT22;34000;48.772;9.162;2022-12-18T04:01:05;-2.70;56.90
48212;DHT22;34000;48.772;9.162;2022-12-18T04:03:32;-2.70;57.00
48212;DHT22;34000;48.772;9.162;2022-12-18T04:05:59;-2.80;57.00
48212;DHT22;34000;48.772;9.162;2022-12-18T04:08:25;-2.80;57.10
48212;DHT22;34000;48.772;9.162;2022-12-18T04:10:51;-2.90;57.70
48212;DHT22;34000;48.772;9.162;2022-12-18T04:13:29;-2.90;57.20
48212;DHT22;34000;48.772;9.162;2022-12-18T04:15:55;-3.00;57.30
48212;DHT22;34000;48.772;9.162;2022-12-18T04:18:20;-3.00;57.30
48212;DHT22;34000;48.772;9.162;2022-12-18T04:20:46;-2.90;57.30
48212;DHT22;34000;48.772;9.162;2022-12-18T04:23:11;-3.00;57.20
48212;DHT22;34000;48.772;9.162;2022-12-18T04:25:37;-3.00;57.20
48212;DHT22;34000;48.772;9.162;2022-12-18T04:28:02;-3.00;57.20
48212;DHT22;34000;48.772;9.162;2022-12-18T04:30:28;-3.10;57.30
48212;DHT22;34000;48.772;9.162;2022-12-18T04:32:53;-3.10;57.20
48212;DHT22;34000;48.772;9.162;2022-12-18T04:35:19;-3.10;57.20
48212;DHT22;34000;48.772;9.162;2022-12-18T04:37:44;-3.00;57.30
48212;DHT22;34000;48.772;9.162;2022-12-18T04:40:10;-3.00;57.30
48212;DHT22;34000;48.772;9.162;2022-12-18T04:42:36;-3.00;57.30
48212;DHT22;34000;48.772;9.162;2022-12-18T04:45:01;-2.90;57.20
48212;DHT22;34000;48.772;9.162;2022-12-18T04:47:27;-2.80;57.20
48212;DHT22;34000;48.772;9.162;2022-12-18T04:49:52;-2.80;57.10
48212;DHT22;34000;48.772;9.162;2022-12-18T04:52:18;-2.70;57.00
48212;DHT22;34000;48.772;9.162;2022-12-18T04:54:43;-2.70;56.80
48212;DHT22;34000;48.772;9.162;2022-12-18T04:57:09;-2.90;56.60
48212;DHT22;34000;48.772;9.162;2022-12-18T04:59:34;-2.90;56.70
48212;DHT22;34000;48.772;9.162;2022-12-18T05:01:59;-3.00;56.80
48212;DHT22;34000;48.772;9.162;2022-12-18T05:04:25;-3.00;56.80
48212;DHT22;34000;48.772;9.162;2022-12-18T05:06:50;-3.00;56.80
48212;DHT22;34000;48.772;9.162;2022-12-18T05:09:16;-3.10;56.80
48212;DHT22;34000;48.772;9.162;2022-12-18T05:11:41;-3.10;56.90
48212;DHT22;34000;48.772;9.162;2022-12-18T05:14:07;-3.10;56.80
48212;DHT22;34000;48.772;9.162;2022-12-18T05:16:32;-3.00;56.90
48212;DHT22;34000;48.772;9.162;2022-12-18T05:18:58;-3.00;56.90
48212;DHT22;34000;48.772;9.162;2022-12-18T05:21:23;-2.90;56.70
48212;DHT22;34000;48.772;9.162;2022-12-18T05:23:49;-2.90;56.50
48212;DHT22;34000;48.772;9.162;2022-12-18T05:26:15;-3.00;56.50
48212;DHT22;34000;48.772;9.162;2022-12-18T05:28:41;-3.10;56.50
48212;DHT22;34000;48.772;9.162;2022-12-18T05:31:07;-3.10;56.60
48212;DHT22;34000;48.772;9.162;2022-12-18T05:33:33;-3.20;56.70
48212;DHT22;34000;48.772;9.162;2022-12-18T05:36:00;-3.10;56.80
48212;DHT22;34000;48.772;9.162;2022-12-18T05:38:26;-3.10;56.80
48212;DHT22;34000;48.772;9.162;2022-12-18T05:40:51;-3.00;56.70
48212;DHT22;34000;48.772;9.162;2022-12-18T05:43:17;-3.10;56.60
48212;DHT22;34000;48.772;9.162;2022-12-18T05:45:43;-3.10;56.50
48212;DHT22;34000;48.772;9.162;2022-12-18T05:48:09;-3.10;56.50
48212;DHT22;34000;48.772;9.162;2022-12-18T05:50:38;-3.10;56.50
48212;DHT22;34000;48.772;9.162;2022-12-18T05:53:04;-3.10;56.50
48212;DHT22;34000;48.772;9.162;2022-12-18T05:55:33;-3.20;56.30
48212;DHT22;34000;48.772;9.162;2022-12-18T05:57:58;-3.20;56.40
48212;DHT22;34000;48.772;9.162;2022-12-18T06:00:24;-3.30;56.50
48212;DHT22;34000;48.772;9.162;2022-12-18T06:02:49;-3.30;56.50
48212;DHT22;34000;48.772;9.162;2022-12-18T06:05:15;-3.40;56.50
48212;DHT22;34000;48.772;9.162;2022-12-18T06:07:40;-3.40;56.60
48212;DHT22;34000;48.772;9.162;2022-12-18T06:10:06;-3.50;56.60
48212;DHT22;34000;48.772;9.162;2022-12-18T06:12:31;-3.50;56.70
48212;DHT22;34000;48.772;9.162;2022-12-18T06:14:59;-3.40;56.70
48212;DHT22;34000;48.772;9.162;2022-12-18T06:17:27;-3.50;56.70
48212;DHT22;34000;48.772;9.162;2022-12-18T06:19:54;-3.40;56.70
48212;DHT22;34000;48.772;9.162;2022-12-18T06:22:19;-3.40;56.70
48212;DHT22;34000;48.772;9.162;2022-12-18T06:24:45;-3.30;56.70
48212;DHT22;34000;48.772;9.162;2022-12-18T06:27:10;-3.40;56.70
48212;DHT22;34000;48.772;9.162;2022-12-18T06:29:36;-3.30;56.70
48212;DHT22;34000;48.772;9.162;2022-12-18T06:32:01;-3.20;56.70
48212;DHT22;34000;48.772;9.162;2022-12-18T06:34:26;-3.30;56.50
48212;DHT22;34000;48.772;9.162;2022-12-18T06:36:52;-3.20;56.50
48212;DHT22;34000;48.772;9.162;2022-12-18T06:39:17;-3.20;56.40
48212;DHT22;34000;48.772;9.162;2022-12-18T06:41:43;-3.30;56.30
48212;DHT22;34000;48.772;9.162;2022-12-18T06:44:08;-3.30;56.30
48212;DHT22;34000;48.772;9.162;2022-12-18T06:46:34;-3.30;56.30
48212;DHT22;34000;48.772;9.162;2022-12-18T06:48:59;-3.40;56.30
48212;DHT22;34000;48.772;9.162;2022-12-18T06:51:25;-3.50;56.40
48212;DHT22;34000;48.772;9.162;2022-12-18T06:53:51;-3.40;56.50
48212;DHT22;34000;48.772;9.162;2022-12-18T06:56:16;-3.50;56.50
48212;DHT22;34000;48.772;9.162;2022-12-18T06:58:42;-3.50;56.50
48212;DHT22;34000;48.772;9.162;2022-12-18T07:01:08;-3.60;56.40
48212;DHT22;34000;48.772;9.162;2022-12-18T07:03:35;-3.60;56.50
48212;DHT22;34000;48.772;9.162;2022-12-18T07:06:00;-3.70;56.50
48212;DHT22;34000;48.772;9.162;2022-12-18T07:08:26;-3.70;56.60
48212;DHT22;34000;48.772;9.162;2022-12-18T07:10:51;-3.70;56.70
48212;DHT22;34000;48.772;9.162;2022-12-18T07:13:19;-3.70;56.70
48212;DHT22;34000;48.772;9.162;2022-12-18T07:15:44;-3.70;56.70
48212;DHT22;34000;48.772;9.162;2022-12-18T07:18:10;-3.60;56.70
48212;DHT22;34000;48.772;9.162;2022-12-18T07:20:35;-3.50;56.70
48212;DHT22;34000;48.772;9.162;2022-12-18T07:23:04;-3.50;56.60
48212;DHT22;34000;48.772;9.162;2022-12-18T07:25:39;-3.40;56.60
48212;DHT22;34000;48.772;9.162;2022-12-18T07:28:05;-3.50;56.50
48212;DHT22;34000;48.772;9.162;2022-12-18T07:30:30;-3.40;56.60
48212;DHT22;34000;48.772;9.162;2022-12-18T07:32:56;-3.40;56.50
48212;DHT22;34000;48.772;9.162;2022-12-18T07:35:21;-3.40;56.50
48212;DHT22;34000;48.772;9.162;2022-12-18T07:37:47;-3.40;56.40
48212;DHT22;34000;48.772;9.162;2022-12-18T07:40:12;-3.40;56.40
48212;DHT22;34000;48.772;9.162;2022-12-18T07:42:38;-3.30;56.50
48212;DHT22;34000;48.772;9.162;2022-12-18T07:45:03;-3.40;56.40
48212;DHT22;34000;48.772;9.162;2022-12-18T07:47:29;-3.40;56.40
48212;DHT22;34000;48.772;9.162;2022-12-18T07:49:54;-3.30;56.50
48212;DHT22;34000;48.772;9.162;2022-12-18T07:52:20;-3.20;56.50
48212;DHT22;34000;48.772;9.162;2022-12-18T07:54:46;-3.20;56.40
48212;DHT22;34000;48.772;9.162;2022-12-18T07:57:14;-3.10;56.40
48212;DHT22;34000;48.772;9.162;2022-12-18T07:59:39;-3.10;56.30
48212;DHT22;34000;48.772;9.162;2022-12-18T08:02:05;-3.00;56.30
48212;DHT22;34000;48.772;9.162;2022-12-18T08:04:30;-2.90;56.20
48212;DHT22;34000;48.772;9.162;2022-12-18T08:06:56;-2.80;56.10
48212;DHT22;34000;48.772;9.162;2022-12-18T08:09:21;-2.70;56.10
48212;DHT22;34000;48.772;9.162;2022-12-18T08:11:47;-2.60;56.00
48212;DHT22;34000;48.772;9.162;2022-12-18T08:14:12;-2.50;55.90
48212;DHT22;34000;48.772;9.162;2022-12-18T08:16:39;-2.50;55.80
48212;DHT22;34000;48.772;9.162;2022-12-18T08:19:04;-2.20;55.70
48212;DHT22;34000;48.772;9.162;2022-12-18T08:21:30;-2.20;55.60
48212;DHT22;34000;48.772;9.162;2022-12-18T08:23:57;-2.10;55.50
48212;DHT22;34000;48.772;9.162;2022-12-18T08:26:23;-2.10;55.50
48212;DHT22;34000;48.772;9.162;2022-12-18T08:28:49;-2.10;55.30
48212;DHT22;34000;48.772;9.162;2022-12-18T08:31:15;-2.10;55.30
48212;DHT22;34000;48.772;9.162;2022-12-18T08:33:40;-2.10;54.80
48212;DHT22;34000;48.772;9.162;2022-12-18T08:36:06;-2.20;55.20
48212;DHT22;34000;48.772;9.162;2022-12-18T08:38:32;-2.20;55.40
48212;DHT22;34000;48.772;9.162;2022-12-18T08:41:05;-2.20;55.40
48212;DHT22;34000;48.772;9.162;2022-12-18T08:43:31;-2.10;55.50
48212;DHT22;34000;48.772;9.162;2022-12-18T08:46:15;-2.00;55.40
48212;DHT22;34000;48.772;9.162;2022-12-18T08:48:41;-2.00;55.30
48212;DHT22;34000;48.772;9.162;2022-12-18T08:51:06;-1.90;55.30
48212;DHT22;34000;48.772;9.162;2022-12-18T08:53:35;-1.80;55.30
48212;DHT22;34000;48.772;9.162;2022-12-18T08:56:00;-1.60;55.70
48212;DHT22;34000;48.772;9.162;2022-12-18T08:58:26;-1.50;55.20
48212;DHT22;34000;48.772;9.162;2022-12-18T09:00:51;-1.40;55.10
48212;DHT22;34000;48.772;9.162;2022-12-18T09:03:17;-1.30;55.00
48212;DHT22;34000;48.772;9.162;2022-12-18T09:05:43;-1.30;54.80
48212;DHT22;34000;48.772;9.162;2022-12-18T09:08:10;-1.30;54.70
48212;DHT22;34000;48.772;9.162;2022-12-18T09:10:41;-1.20;54.60
48212;DHT22;34000;48.772;9.162;2022-12-18T09:13:06;-1.20;54.60
48212;DHT22;34000;48.772;9.162;2022-12-18T09:15:32;-1.30;54.60
48212;DHT22;34000;48.772;9.162;2022-12-18T09:17:57;-1.10;54.80
48212;DHT22;34000;48.772;9.162;2022-12-18T09:20:23;-1.20;54.70
48212;DHT22;34000;48.772;9.162;2022-12-18T09:22:49;-1.00;54.90
48212;DHT22;34000;48.772;9.162;2022-12-18T09:25:15;-0.70;54.90
48212;DHT22;34000;48.772;9.162;2022-12-18T09:27:40;0.30;55.00
48212;DHT22;34000;48.772;9.162;2022-12-18T09:30:06;1.60;54.00
48212;DHT22;34000;48.772;9.162;2022-12-18T09:32:31;3.10;52.40
48212;DHT22;34000;48.772;9.162;2022-12-18T09:34:57;4.50;51.30
48212;DHT22;34000;48.772;9.162;2022-12-18T09:37:22;6.00;49.10
48212;DHT22;34000;48.772;9.162;2022-12-18T09:39:48;7.20;47.60
48212;DHT22;34000;48.772;9.162;2022-12-18T09:42:18;8.30;46.60
48212;DHT22;34000;48.772;9.162;2022-12-18T09:44:45;9.10;45.60
48212;DHT22;34000;48.772;9.162;2022-12-18T09:47:22;9.90;44.90
48212;DHT22;34000;48.772;9.162;2022-12-18T09:49:49;10.60;44.40
48212;DHT22;34000;48.772;9.162;2022-12-18T09:52:21;11.10;43.90
48212;DHT22;34000;48.772;9.162;2022-12-18T09:54:53;11.70;43.30
48212;DHT22;34000;48.772;9.162;2022-12-18T09:59:47;12.20;43.60
48212;DHT22;34000;48.772;9.162;2022-12-18T10:02:19;12.90;42.80
48212;DHT22;34000;48.772;9.162;2022-12-18T10:04:48;13.00;42.80
48212;DHT22;34000;48.772;9.162;2022-12-18T10:07:18;12.90;42.90
48212;DHT22;34000;48.772;9.162;2022-12-18T10:15:15;13.20;43.20
48212;DHT22;34000;48.772;9.162;2022-12-18T10:17:56;14.00;42.40
48212;DHT22;34000;48.772;9.162;2022-12-18T10:28:10;13.70;40.20
48212;DHT22;34000;48.772;9.162;2022-12-18T10:30:36;13.90;39.70
48212;DHT22;34000;48.772;9.162;2022-12-18T10:33:03;14.40;39.50
48212;DHT22;34000;48.772;9.162;2022-12-18T10:35:29;14.70;38.80
48212;DHT22;34000;48.772;9.162;2022-12-18T10:40:32;14.90;38.50
48212;DHT22;34000;48.772;9.162;2022-12-18T10:43:31;15.20;38.40
48212;DHT22;34000;48.772;9.162;2022-12-18T10:46:00;15.50;38.10
48212;DHT22;34000;48.772;9.162;2022-12-18T10:48:25;15.90;38.00
48212;DHT22;34000;48.772;9.162;2022-12-18T10:50:51;16.00;37.70
48212;DHT22;34000;48.772;9.162;2022-12-18T10:53:19;15.90;37.50
48212;DHT22;34000;48.772;9.162;2022-12-18T10:55:45;15.80;37.60
48212;DHT22;34000;48.772;9.162;2022-12-18T11:01:13;15.70;37.70
48212;DHT22;34000;48.772;9.162;2022-12-18T11:03:45;15.60;37.70
48212;DHT22;34000;48.772;9.162;2022-12-18T11:06:12;15.80;37.70
48212;DHT22;34000;48.772;9.162;2022-12-18T11:08:39;16.10;37.30
48212;DHT22;34000;48.772;9.162;2022-12-18T11:11:07;16.20;36.80
48212;DHT22;34000;48.772;9.162;2022-12-18T11:13:39;16.30;36.70
48212;DHT22;34000;48.772;9.162;2022-12-18T11:16:05;16.40;36.40
48212;DHT22;34000;48.772;9.162;2022-12-18T11:18:34;16.50;36.30
48212;DHT22;34000;48.772;9.162;2022-12-18T11:21:07;16.60;35.70
48212;DHT22;34000;48.772;9.162;2022-12-18T11:23:34;16.50;35.00
48212;DHT22;34000;48.772;9.162;2022-12-18T11:26:03;16.30;34.90
48212;DHT22;34000;48.772;9.162;2022-12-18T11:33:40;17.20;34.20
48212;DHT22;34000;48.772;9.162;2022-12-18T11:36:07;17.50;34.10
48212;DHT22;34000;48.772;9.162;2022-12-18T11:38:34;17.40;33.80
48212;DHT22;34000;48.772;9.162;2022-12-18T11:41:14;17.20;34.20
48212;DHT22;34000;48.772;9.162;2022-12-18T11:43:43;16.90;34.60
48212;DHT22;34000;48.772;9.162;2022-12-18T11:46:11;16.70;35.10
48212;DHT22;34000;48.772;9.162;2022-12-18T11:48:43;16.50;35.60
48212;DHT22;34000;48.772;9.162;2022-12-18T11:51:11;16.00;36.30
48212;DHT22;34000;48.772;9.162;2022-12-18T11:53:38;15.70;36.80
48212;DHT22;34000;48.772;9.162;2022-12-18T11:58:51;15.40;37.10
48212;DHT22;34000;48.772;9.162;2022-12-18T12:03:48;14.70;37.40
48212;DHT22;34000;48.772;9.162;2022-12-18T12:08:50;13.60;38.40
48212;DHT22;34000;48.772;9.162;2022-12-18T12:18:46;13.20;38.60
48212;DHT22;34000;48.772;9.162;2022-12-18T12:26:12;11.60;39.30
48212;DHT22;34000;48.772;9.162;2022-12-18T12:37:01;9.90;40.70
48212;DHT22;34000;48.772;9.162;2022-12-18T12:39:28;9.60;40.70
48212;DHT22;34000;48.772;9.162;2022-12-18T12:41:55;9.30;40.80
48212;DHT22;34000;48.772;9.162;2022-12-18T12:44:48;9.20;41.10
48212;DHT22;34000;48.772;9.162;2022-12-18T12:47:28;8.90;41.20
48212;DHT22;34000;48.772;9.162;2022-12-18T12:49:56;8.70;41.30
48212;DHT22;34000;48.772;9.162;2022-12-18T12:52:35;8.60;41.50
48212;DHT22;34000;48.772;9.162;2022-12-18T12:55:04;8.50;41.50
48212;DHT22;34000;48.772;9.162;2022-12-18T13:00:18;8.30;41.60
48212;DHT22;34000;48.772;9.162;2022-12-18T13:03:01;8.20;41.80
48212;DHT22;34000;48.772;9.162;2022-12-18T13:05:31;8.10;41.80
48212;DHT22;34000;48.772;9.162;2022-12-18T13:08:03;8.10;41.80
48212;DHT22;34000;48.772;9.162;2022-12-18T13:13:02;7.90;41.90
48212;DHT22;34000;48.772;9.162;2022-12-18T13:20:35;7.60;42.20
48212;DHT22;34000;48.772;9.162;2022-12-18T13:23:18;7.60;42.20
48212;DHT22;34000;48.772;9.162;2022-12-18T13:25:44;7.50;42.00
48212;DHT22;34000;48.772;9.162;2022-12-18T13:28:13;7.30;42.00
48212;DHT22;34000;48.772;9.162;2022-12-18T13:30:43;7.10;41.80
48212;DHT22;34000;48.772;9.162;2022-12-18T13:35:42;6.80;42.20
48212;DHT22;34000;48.772;9.162;2022-12-18T13:38:38;6.70;42.20
48212;DHT22;34000;48.772;9.162;2022-12-18T13:41:23;6.60;42.30
48212;DHT22;34000;48.772;9.162;2022-12-18T13:44:10;6.50;42.30
48212;DHT22;34000;48.772;9.162;2022-12-18T13:46:45;6.40;42.40
48212;DHT22;34000;48.772;9.162;2022-12-18T13:51:38;6.10;42.50
48212;DHT22;34000;48.772;9.162;2022-12-18T13:56:42;6.00;42.60
48212;DHT22;34000;48.772;9.162;2022-12-18T14:01:33;5.70;42.80
48212;DHT22;34000;48.772;9.162;2022-12-18T14:04:32;5.60;42.90
48212;DHT22;34000;48.772;9.162;2022-12-18T14:09:35;5.50;43.20
48212;DHT22;34000;48.772;9.162;2022-12-18T14:12:01;5.40;43.20
48212;DHT22;34000;48.772;9.162;2022-12-18T14:14:46;5.40;43.30
48212;DHT22;34000;48.772;9.162;2022-12-18T14:17:12;5.30;43.40
48212;DHT22;34000;48.772;9.162;2022-12-18T14:19:42;5.20;43.50
48212;DHT22;34000;48.772;9.162;2022-12-18T14:22:29;5.20;43.50
48212;DHT22;34000;48.772;9.162;2022-12-18T14:28:22;5.20;43.60
48212;DHT22;34000;48.772;9.162;2022-12-18T14:33:00;5.00;43.80
48212;DHT22;34000;48.772;9.162;2022-12-18T14:35:26;5.10;44.00
48212;DHT22;34000;48.772;9.162;2022-12-18T14:37:52;4.90;44.10
48212;DHT22;34000;48.772;9.162;2022-12-18T14:40:17;4.80;44.20
48212;DHT22;34000;48.772;9.162;2022-12-18T14:42:43;4.80;44.30
48212;DHT22;34000;48.772;9.162;2022-12-18T14:47:52;4.60;44.50
48212;DHT22;34000;48.772;9.162;2022-12-18T14:50:18;4.60;44.70
48212;DHT22;34000;48.772;9.162;2022-12-18T14:52:43;4.60;44.70
48212;DHT22;34000;48.772;9.162;2022-12-18T14:55:16;4.50;44.70
48212;DHT22;34000;48.772;9.162;2022-12-18T14:57:42;4.50;44.80
48212;DHT22;34000;48.772;9.162;2022-12-18T15:00:17;4.50;44.90
48212;DHT22;34000;48.772;9.162;2022-12-18T15:02:44;4.30;44.90
48212;DHT22;34000;48.772;9.162;2022-12-18T15:07:44;4.30;45.10
48212;DHT22;34000;48.772;9.162;2022-12-18T15:10:14;4.30;45.10
48212;DHT22;34000;48.772;9.162;2022-12-18T15:12:42;4.30;45.10
48212;DHT22;34000;48.772;9.162;2022-12-18T15:18:05;4.10;45.30
48212;DHT22;34000;48.772;9.162;2022-12-18T15:26:02;3.80;45.90
48212;DHT22;34000;48.772;9.162;2022-12-18T15:33:26;3.60;46.30
48212;DHT22;34000;48.772;9.162;2022-12-18T15:35:59;3.50;46.40
48212;DHT22;34000;48.772;9.162;2022-12-18T15:38:25;3.40;46.60
48212;DHT22;34000;48.772;9.162;2022-12-18T15:40:50;3.40;46.70
48212;DHT22;34000;48.772;9.162;2022-12-18T15:43:17;3.50;46.80
48212;DHT22;34000;48.772;9.162;2022-12-18T15:46:05;3.50;46.60
48212;DHT22;34000;48.772;9.162;2022-12-18T15:48:33;3.50;46.50
48212;DHT22;34000;48.772;9.162;2022-12-18T15:50:59;3.60;46.50
48212;DHT22;34000;48.772;9.162;2022-12-18T15:53:25;3.50;46.60
48212;DHT22;34000;48.772;9.162;2022-12-18T15:55:53;3.40;47.30
48212;DHT22;34000;48.772;9.162;2022-12-18T15:58:37;3.40;46.80
48212;DHT22;34000;48.772;9.162;2022-12-18T16:01:02;3.40;46.80
48212;DHT22;34000;48.772;9.162;2022-12-18T16:03:28;3.50;46.90
48212;DHT22;34000;48.772;9.162;2022-12-18T16:05:53;3.50;46.80
48212;DHT22;34000;48.772;9.162;2022-12-18T16:08:19;3.40;47.40
48212;DHT22;34000;48.772;9.162;2022-12-18T16:10:44;3.40;46.80
48212;DHT22;34000;48.772;9.162;2022-12-18T16:13:10;3.40;46.90
48212;DHT22;34000;48.772;9.162;2022-12-18T16:15:36;3.30;47.00
48212;DHT22;34000;48.772;9.162;2022-12-18T16:18:01;3.20;47.10
48212;DHT22;34000;48.772;9.162;2022-12-18T16:20:27;3.20;47.20
48212;DHT22;34000;48.772;9.162;2022-12-18T16:22:52;3.20;47.30
48212;DHT22;34000;48.772;9.162;2022-12-18T16:25:25;3.30;47.40
48212;DHT22;34000;48.772;9.162;2022-12-18T16:27:51;3.20;47.30
48212;DHT22;34000;48.772;9.162;2022-12-18T16:30:18;3.20;48.00
48212;DHT22;34000;48.772;9.162;2022-12-18T16:32:44;3.30;47.40
48212;DHT22;34000;48.772;9.162;2022-12-18T16:35:11;3.30;47.40
48212;DHT22;34000;48.772;9.162;2022-12-18T16:37:36;3.20;47.40
48212;DHT22;34000;48.772;9.162;2022-12-18T16:40:02;3.30;47.50
48212;DHT22;34000;48.772;9.162;2022-12-18T16:42:27;3.20;48.10
48212;DHT22;34000;48.772;9.162;2022-12-18T16:44:53;3.20;47.50
48212;DHT22;34000;48.772;9.162;2022-12-18T16:47:18;3.20;47.50
48212;DHT22;34000;48.772;9.162;2022-12-18T16:49:44;3.30;47.50
48212;DHT22;34000;48.772;9.162;2022-12-18T16:52:10;3.40;47.50
48212;DHT22;34000;48.772;9.162;2022-12-18T16:54:35;3.40;47.40
48212;DHT22;34000;48.772;9.162;2022-12-18T16:57:01;3.40;47.30
48212;DHT22;34000;48.772;9.162;2022-12-18T16:59:27;3.40;47.30
48212;DHT22;34000;48.772;9.162;2022-12-18T17:01:53;3.30;47.30
48212;DHT22;34000;48.772;9.162;2022-12-18T17:04:19;3.30;47.30
48212;DHT22;34000;48.772;9.162;2022-12-18T17:06:45;3.30;47.40
48212;DHT22;34000;48.772;9.162;2022-12-18T17:09:16;3.40;47.50
48212;DHT22;34000;48.772;9.162;2022-12-18T17:11:42;3.30;47.50
48212;DHT22;34000;48.772;9.162;2022-12-18T17:14:09;3.30;47.50
48212;DHT22;34000;48.772;9.162;2022-12-18T17:16:35;3.30;47.60
48212;DHT22;34000;48.772;9.162;2022-12-18T17:19:00;3.30;47.70
48212;DHT22;34000;48.772;9.162;2022-12-18T17:21:26;3.30;47.70
48212;DHT22;34000;48.772;9.162;2022-12-18T17:23:51;3.30;47.60
48212;DHT22;34000;48.772;9.162;2022-12-18T17:26:17;3.30;47.60
48212;DHT22;34000;48.772;9.162;2022-12-18T17:28:42;3.40;47.60
48212;DHT22;34000;48.772;9.162;2022-12-18T17:31:11;3.50;47.60
48212;DHT22;34000;48.772;9.162;2022-12-18T17:33:37;3.50;47.80
48212;DHT22;34000;48.772;9.162;2022-12-18T17:36:02;3.40;47.50
48212;DHT22;34000;48.772;9.162;2022-12-18T17:38:28;3.50;47.60
48212;DHT22;34000;48.772;9.162;2022-12-18T17:40:53;3.50;47.60
48212;DHT22;34000;48.772;9.162;2022-12-18T17:43:19;3.60;47.60
48212;DHT22;34000;48.772;9.162;2022-12-18T17:45:44;3.60;47.50
48212;DHT22;34000;48.772;9.162;2022-12-18T17:48:10;3.70;47.50
48212;DHT22;34000;48.772;9.162;2022-12-18T17:50:35;3.80;47.40
48212;DHT22;34000;48.772;9.162;2022-12-18T17:53:01;3.70;47.40
48212;DHT22;34000;48.772;9.162;2022-12-18T17:55:27;3.60;47.40
48212;DHT22;34000;48.772;9.162;2022-12-18T17:57:52;3.60;47.50
48212;DHT22;34000;48.772;9.162;2022-12-18T18:00:18;3.50;47.70
48212;DHT22;34000;48.772;9.162;2022-12-18T18:02:44;3.50;47.80